Time;durP1;ratioP1;P1;durP2;ratioP2;P2;SDS_P1;SDS_P2;PMS_P1;PMS_P2;Temp;Humidity;BMP_temperature;BMP_pressure;BME280_temperature;BME280_humidity;BME280_pressure;Samples;Min_cycle;Max_cycle;Signal;HPM_P1;HPM_P2
2020/12/03 00:01:32;;;;;;;;;;;;;;;;;;4972047;28;19926;-62
2020/12/03 00:04:14;;;;;;;;;;;;;;;;;;4989708;28;20317;-63
2020/12/03 00:06:42;;;;;;;;;;;;;;;;;;4973724;28;21860;-63
2020/12/03 00:09:09;;;;;;;;;;;;;;;;;;4972127;28;19970;-63
2020/12/03 00:11:36;;;;;;;;;;;;;;;;;;4976028;28;19988;-63
2020/12/03 00:14:03;;;;;;;;;;;;;;;;;;4980436;28;19930;-63
2020/12/03 00:16:30;;;;;;;;;;;;;;;;;;4976784;28;20404;-63
2020/12/03 00:18:57;;;;;;;;;;;;;;;;;;4981220;28;19930;-64
2020/12/03 00:21:25;;;;;;;;;;;;;;;;;;4972713;28;19945;-64
2020/12/03 00:23:52;;;;;;;;;;;;;;;;;;4981821;28;19953;-63
2020/12/03 00:26:19;;;;;;;;;;;;;;;;;;4983370;28;19926;-63
2020/12/03 00:28:47;;;;;;;;;;;;;;;;;;4982874;28;19980;-65
2020/12/03 00:31:14;;;;;;;;;;;;;;;;;;4990311;28;20030;-64
2020/12/03 00:33:41;;;;;;;;;;;;;;;;;;4975964;28;19927;-64
2020/12/03 00:36:08;;;;;;;;;;;;;;;;;;4972479;28;19937;-63
2020/12/03 00:38:35;;;;;;;;;;;;;;;;;;4976466;28;20013;-63
2020/12/03 00:41:02;;;;;;;;;;;;;;;;;;4973920;28;20327;-62
2020/12/03 00:43:30;;;;;;;;;;;;;;;;;;4986620;28;20402;-63
2020/12/03 00:45:57;;;;;;;;;;;;;;;;;;4986168;28;19984;-63
2020/12/03 00:48:24;;;;;;;;;;;;;;;;;;4976955;28;20025;-62
2020/12/03 00:50:51;;;;;;;;;;;;;;;;;;4964111;28;20013;-63
2020/12/03 00:53:18;;;;;;;;;;;;;;;;;;4978907;28;19930;-63
2020/12/03 00:55:45;;;;;;;;;;;;;;;;;;4973030;28;20309;-64
2020/12/03 00:58:12;;;;;;;;;;;;;;;;;;4985790;28;19926;-64
2020/12/03 01:00:39;;;;;;;;;;;;;;;;;;4982648;28;20032;-63
2020/12/03 01:03:07;;;;;;;;;;;;;;;;;;4978823;28;20017;-63
2020/12/03 01:05:34;;;;;;;;;;;;;;;;;;4972856;28;19932;-62
2020/12/03 01:08:01;;;;;;;;;;;;;;;;;;4984221;28;19941;-63
2020/12/03 01:10:28;;;;;;;;;;;;;;;;;;4979286;28;19926;-64
2020/12/03 01:12:55;;;;;;;;;;;;;;;;;;4977203;28;20012;-63
2020/12/03 01:15:22;;;;;;;;;;;;;;;;;;4988683;28;19926;-63
2020/12/03 01:17:49;;;;;;;;;;;;;;;;;;4982400;28;19937;-63
2020/12/03 01:20:17;;;;;;;;;;;;;;;;;;4976986;28;19972;-63
2020/12/03 01:22:44;;;;;;;;;;;;;;;;;;4984148;28;20036;-64
2020/12/03 01:25:11;;;;;;;;;;;;;;;;;;4980183;28;19973;-62
2020/12/03 01:27:38;;;;;;;;;;;;;;;;;;4982268;28;20354;-63
2020/12/03 01:30:05;;;;;;;;;;;;;;;;;;4970350;28;19937;-65
2020/12/03 01:32:32;;;;;;;;;;;;;;;;;;4977774;28;19930;-62
2020/12/03 01:34:59;;;;;;;;;;;;;;;;;;4981091;28;19929;-64
2020/12/03 01:37:26;;;;;;;;;;;;;;;;;;4979149;28;19973;-64
2020/12/03 01:39:53;;;;;;;;;;;;;;;;;;4975349;28;20017;-63
2020/12/03 01:42:20;;;;;;;;;;;;;;;;;;4986788;28;20366;-63
2020/12/03 01:44:48;;;;;;;;;;;;;;;;;;4972510;28;19929;-63
2020/12/03 01:47:15;;;;;;;;;;;;;;;;;;4978794;28;20343;-63
2020/12/03 01:49:42;;;;;;;;;;;;;;;;;;4966189;28;19933;-62
2020/12/03 01:52:09;;;;;;;;;;;;;;;;;;4982119;28;19930;-63
2020/12/03 01:54:36;;;;;;;;;;;;;;;;;;4973626;28;19995;-63
2020/12/03 01:57:03;;;;;;;;;;;;;;;;;;4981114;28;19926;-62
2020/12/03 01:59:30;;;;;;;;;;;;;;;;;;4982767;28;19936;-64
2020/12/03 02:01:58;;;;;;;;;;;;;;;;;;4991107;23;19925;-87
2020/12/03 02:04:25;;;;;;;;;;;;;;;;;;4948082;28;19981;-87
2020/12/03 02:06:52;;;;;;;;;;;;;;;;;;4954001;28;19930;-87
2020/12/03 02:09:20;;;;;;;;;;;;;;;;;;4954053;28;20147;-87
2020/12/03 02:11:47;;;;;;;;;;;;;;;;;;4959241;28;20371;-87
2020/12/03 02:14:14;;;;;;;;;;;;;;;;;;4950806;28;19981;-87
2020/12/03 02:16:42;;;;;;;;;;;;;;;;;;4952418;29;19959;-87
2020/12/03 02:19:09;;;;;;;;;;;;;;;;;;4952827;28;19961;-87
2020/12/03 02:21:36;;;;;;;;;;;;;;;;;;4959724;28;20428;-87
2020/12/03 02:24:03;;;;;;;;;;;;;;;;;;4952318;29;19931;-87
2020/12/03 02:26:30;;;;;;;;;;;;;;;;;;4952664;29;20397;-87
2020/12/03 02:28:58;;;;;;;;;;;;;;;;;;4950252;28;20314;-87
2020/12/03 02:31:25;;;;;;;;;;;;;;;;;;4953963;28;20346;-87
2020/12/03 02:33:52;;;;;;;;;;;;;;;;;;4955099;28;19932;-87
2020/12/03 02:36:19;;;;;;;;;;;;;;;;;;4949274;28;19930;-87
2020/12/03 02:38:47;;;;;;;;;;;;;;;;;;4953730;28;19926;-87
2020/12/03 02:41:14;;;;;;;;;;;;;;;;;;4953799;29;19997;-87
2020/12/03 02:43:41;;;;;;;;;;;;;;;;;;4953997;29;19931;-87
2020/12/03 02:46:08;;;;;;;;;;;;;;;;;;4953217;28;19934;-87
2020/12/03 02:48:36;;;;;;;;;;;;;;;;;;4954850;29;20074;-87
2020/12/03 02:51:03;;;;;;;;;;;;;;;;;;4954653;28;19986;-87
2020/12/03 02:53:30;;;;;;;;;;;;;;;;;;4954744;28;19930;-87
2020/12/03 02:55:57;;;;;;;;;;;;;;;;;;4953543;28;19930;-86
2020/12/03 02:58:24;;;;;;;;;;;;;;;;;;4946921;28;20297;-87
2020/12/03 03:00:51;;;;;;;;;;;;;;;;;;4949622;29;20432;-87
2020/12/03 03:03:19;;;;;;;;;;;;;;;;;;4953999;28;19937;-87
2020/12/03 03:05:46;;;;;;;;;;;;;;;;;;4957028;28;19933;-87
2020/12/03 03:08:15;;;;;;;;;;;;;;;;;;4957556;29;19970;-87
2020/12/03 03:10:42;;;;;;;;;;;;;;;;;;4958186;28;19934;-87
2020/12/03 03:13:10;;;;;;;;;;;;;;;;;;4967044;28;19974;-87
2020/12/03 03:15:37;;;;;;;;;;;;;;;;;;4949739;29;19938;-86
2020/12/03 03:18:05;;;;;;;;;;;;;;;;;;4961402;29;19978;-87
2020/12/03 03:20:32;;;;;;;;;;;;;;;;;;4969245;28;19980;-87
2020/12/03 03:22:59;;;;;;;;;;;;;;;;;;4954599;28;19934;-87
2020/12/03 03:25:26;;;;;;;;;;;;;;;;;;4945434;28;19966;-87
2020/12/03 03:27:53;;;;;;;;;;;;;;;;;;4959069;29;19927;-87
2020/12/03 03:30:21;;;;;;;;;;;;;;;;;;4955317;28;19934;-87
2020/12/03 03:32:48;;;;;;;;;;;;;;;;;;4958061;28;19927;-87
2020/12/03 03:35:15;;;;;;;;;;;;;;;;;;4955777;28;19926;-87
2020/12/03 03:37:43;;;;;;;;;;;;;;;;;;4956851;28;20407;-87
2020/12/03 03:40:10;;;;;;;;;;;;;;;;;;4952805;28;20021;-87
2020/12/03 03:42:40;;;;;;;;;;;;;;;;;;1353753;28;10022074;-86
2020/12/03 03:45:07;;;;;;;;;;;;;;;;;;3919428;29;10001662;-87
2020/12/03 03:47:35;;;;;;;;;;;;;;;;;;4953157;29;19930;-87
2020/12/03 03:50:02;;;;;;;;;;;;;;;;;;4951024;29;19930;-87
2020/12/03 03:52:29;;;;;;;;;;;;;;;;;;4938295;29;19939;-86
2020/12/03 03:54:57;;;;;;;;;;;;;;;;;;4956040;28;20355;-87
2020/12/03 03:57:24;;;;;;;;;;;;;;;;;;4956676;28;19930;-86
2020/12/03 03:59:51;;;;;;;;;;;;;;;;;;4957316;28;19969;-87
2020/12/03 04:02:19;;;;;;;;;;;;;;;;;;4961632;28;19934;-87
2020/12/03 04:04:46;;;;;;;;;;;;;;;;;;4956374;29;20442;-87
2020/12/03 04:07:13;;;;;;;;;;;;;;;;;;4955007;28;19927;-87
2020/12/03 04:09:40;;;;;;;;;;;;;;;;;;4957318;28;21176;-87
2020/12/03 04:12:08;;;;;;;;;;;;;;;;;;4957587;28;20323;-87
2020/12/03 04:14:35;;;;;;;;;;;;;;;;;;4955221;29;19981;-87
2020/12/03 04:17:02;;;;;;;;;;;;;;;;;;4938709;28;19933;-87
2020/12/03 04:19:29;;;;;;;;;;;;;;;;;;4954781;28;19962;-87
2020/12/03 04:21:57;;;;;;;;;;;;;;;;;;4958053;28;19970;-87
2020/12/03 04:24:24;;;;;;;;;;;;;;;;;;4954297;28;20395;-86
2020/12/03 04:26:51;;;;;;;;;;;;;;;;;;4956477;28;19968;-87
2020/12/03 04:29:18;;;;;;;;;;;;;;;;;;4950702;29;20342;-86
2020/12/03 04:31:45;;;;;;;;;;;;;;;;;;4954698;29;19974;-86
2020/12/03 04:34:13;;;;;;;;;;;;;;;;;;4953465;28;19934;-86
2020/12/03 04:36:40;;;;;;;;;;;;;;;;;;4954189;28;20025;-86
2020/12/03 04:39:07;;;;;;;;;;;;;;;;;;4953347;28;19933;-87
2020/12/03 04:41:34;;;;;;;;;;;;;;;;;;4952381;28;19958;-87
2020/12/03 04:44:02;;;;;;;;;;;;;;;;;;4951902;29;20302;-87
2020/12/03 04:46:29;;;;;;;;;;;;;;;;;;4952933;28;19954;-87
2020/12/03 04:48:56;;;;;;;;;;;;;;;;;;4955178;28;19926;-87
2020/12/03 04:51:23;;;;;;;;;;;;;;;;;;4956088;29;19930;-87
2020/12/03 04:53:51;;;;;;;;;;;;;;;;;;4956442;29;19974;-87
2020/12/03 04:56:19;;;;;;;;;;;;;;;;;;4955315;28;19927;-87
2020/12/03 04:58:46;;;;;;;;;;;;;;;;;;4954474;28;20368;-87
2020/12/03 05:01:13;;;;;;;;;;;;;;;;;;4955188;29;20294;-87
2020/12/03 05:03:41;;;;;;;;;;;;;;;;;;4954792;28;20061;-87
2020/12/03 05:06:08;;;;;;;;;;;;;;;;;;4951067;28;19990;-87
2020/12/03 05:08:35;;;;;;;;;;;;;;;;;;4956089;29;19930;-87
2020/12/03 05:11:02;;;;;;;;;;;;;;;;;;4956762;28;19988;-87
2020/12/03 05:13:30;;;;;;;;;;;;;;;;;;4948352;28;20350;-87
2020/12/03 05:15:57;;;;;;;;;;;;;;;;;;4953713;28;19934;-87
2020/12/03 05:18:24;;;;;;;;;;;;;;;;;;4956121;28;19926;-87
2020/12/03 05:20:51;;;;;;;;;;;;;;;;;;4949108;28;20041;-87
2020/12/03 05:23:19;;;;;;;;;;;;;;;;;;4947663;29;20322;-87
2020/12/03 05:25:46;;;;;;;;;;;;;;;;;;4953731;28;20024;-87
2020/12/03 05:28:13;;;;;;;;;;;;;;;;;;4944298;29;19937;-87
2020/12/03 05:30:40;;;;;;;;;;;;;;;;;;4955222;28;19934;-87
2020/12/03 05:33:08;;;;;;;;;;;;;;;;;;4955763;29;19957;-87
2020/12/03 05:35:35;;;;;;;;;;;;;;;;;;4954548;28;20350;-87
2020/12/03 05:38:02;;;;;;;;;;;;;;;;;;4954469;28;20379;-86
2020/12/03 05:40:30;;;;;;;;;;;;;;;;;;4954231;28;19937;-87
2020/12/03 05:42:57;;;;;;;;;;;;;;;;;;4942679;29;20009;-87
2020/12/03 05:45:24;;;;;;;;;;;;;;;;;;4949477;28;19931;-86
2020/12/03 05:47:52;;;;;;;;;;;;;;;;;;4955091;28;19969;-87
2020/12/03 05:50:20;;;;;;;;;;;;;;;;;;4955962;28;19950;-87
2020/12/03 05:52:47;;;;;;;;;;;;;;;;;;4953760;28;19927;-87
2020/12/03 05:55:14;;;;;;;;;;;;;;;;;;4954071;28;19927;-87
2020/12/03 05:57:42;;;;;;;;;;;;;;;;;;4956520;28;20001;-86
2020/12/03 06:00:09;;;;;;;;;;;;;;;;;;4954214;29;20096;-86
2020/12/03 06:02:36;;;;;;;;;;;;;;;;;;4953227;28;19981;-86
2020/12/03 06:05:03;;;;;;;;;;;;;;;;;;4956163;28;19935;-85
2020/12/03 06:07:31;;;;;;;;;;;;;;;;;;4958727;28;19950;-86
2020/12/03 06:09:58;;;;;;;;;;;;;;;;;;4959377;28;19949;-86
2020/12/03 06:12:25;;;;;;;;;;;;;;;;;;4949834;28;19973;-86
2020/12/03 06:14:52;;;;;;;;;;;;;;;;;;4948785;28;19962;-86
2020/12/03 06:17:19;;;;;;;;;;;;;;;;;;4955109;29;19990;-86
2020/12/03 06:19:47;;;;;;;;;;;;;;;;;;4957615;28;20267;-87
2020/12/03 06:22:14;;;;;;;;;;;;;;;;;;4965023;28;19926;-88
2020/12/03 06:24:41;;;;;;;;;;;;;;;;;;4948866;28;19934;-87
2020/12/03 06:27:08;;;;;;;;;;;;;;;;;;4950864;28;19982;-86
2020/12/03 06:29:36;;;;;;;;;;;;;;;;;;4949104;28;19930;-90
2020/12/03 06:32:03;;;;;;;;;;;;;;;;;;4951863;28;20020;-91
2020/12/03 06:34:31;;;;;;;;;;;;;;;;;;4953818;28;25776;-90
2020/12/03 06:36:58;;;;;;;;;;;;;;;;;;4956479;29;19933;-91
2020/12/03 06:39:26;;;;;;;;;;;;;;;;;;4956520;28;19930;-91
2020/12/03 06:41:54;;;;;;;;;;;;;;;;;;4961490;28;20424;-90
2020/12/03 06:44:21;;;;;;;;;;;;;;;;;;4970829;28;19938;-90
2020/12/03 06:46:49;;;;;;;;;;;;;;;;;;4956639;28;19974;-90
2020/12/03 06:49:16;;;;;;;;;;;;;;;;;;4965506;28;19962;-90
2020/12/03 06:51:44;;;;;;;;;;;;;;;;;;4970152;28;20382;-90
2020/12/03 06:54:12;;;;;;;;;;;;;;;;;;4956364;28;20025;-91
2020/12/03 06:56:39;;;;;;;;;;;;;;;;;;4958370;28;19930;-90
2020/12/03 06:59:07;;;;;;;;;;;;;;;;;;4957920;28;19930;-91
2020/12/03 07:01:34;;;;;;;;;;;;;;;;;;4957001;29;19930;-91
2020/12/03 07:04:02;;;;;;;;;;;;;;;;;;4955631;29;19927;-90
2020/12/03 07:06:30;;;;;;;;;;;;;;;;;;4958347;28;19927;-91
2020/12/03 07:08:58;;;;;;;;;;;;;;;;;;4958017;29;19933;-92
2020/12/03 07:11:26;;;;;;;;;;;;;;;;;;4953567;28;19930;-91
2020/12/03 07:13:53;;;;;;;;;;;;;;;;;;4958930;28;20367;-93
2020/12/03 07:16:35;;;;;;;;;;;;;;;;;;4962182;28;19933;-92
2020/12/03 07:19:03;;;;;;;;;;;;;;;;;;4953592;28;19963;-92
2020/12/03 07:21:33;;;;;;;;;;;;;;;;;;4957156;28;20314;-92
2020/12/03 07:24:03;;;;;;;;;;;;;;;;;;4960103;29;20025;-91
2020/12/03 07:26:32;;;;;;;;;;;;;;;;;;4958498;28;19937;-91
2020/12/03 07:29:02;;;;;;;;;;;;;;;;;;4955669;28;20033;-92
2020/12/03 07:31:30;;;;;;;;;;;;;;;;;;4956972;28;19930;-92
2020/12/03 07:33:58;;;;;;;;;;;;;;;;;;4966267;28;19933;-92
2020/12/03 07:36:28;;;;;;;;;;;;;;;;;;4977432;28;19977;-91
2020/12/03 07:38:58;;;;;;;;;;;;;;;;;;4980310;28;19977;-91
2020/12/03 07:41:25;;;;;;;;;;;;;;;;;;4977045;28;20285;-90
2020/12/03 07:43:53;;;;;;;;;;;;;;;;;;4957065;28;19930;-89
2020/12/03 07:46:21;;;;;;;;;;;;;;;;;;4956780;28;19926;-89
2020/12/03 07:48:49;;;;;;;;;;;;;;;;;;4953665;29;19934;-91
2020/12/03 07:51:17;;;;;;;;;;;;;;;;;;4955886;28;19969;-89
2020/12/03 07:53:44;;;;;;;;;;;;;;;;;;4957294;29;19973;-89
2020/12/03 07:56:12;;;;;;;;;;;;;;;;;;4958039;28;19926;-89
2020/12/03 07:58:41;;;;;;;;;;;;;;;;;;4957952;29;19926;-90
2020/12/03 08:01:08;;;;;;;;;;;;;;;;;;4956695;28;19937;-90
2020/12/03 08:03:35;;;;;;;;;;;;;;;;;;4957687;28;20330;-89
2020/12/03 08:06:03;;;;;;;;;;;;;;;;;;4954873;28;20280;-89
2020/12/03 08:08:32;;;;;;;;;;;;;;;;;;4958017;28;20017;-89
2020/12/03 08:10:59;;;;;;;;;;;;;;;;;;4958152;28;19974;-89
2020/12/03 08:13:28;;;;;;;;;;;;;;;;;;4967210;28;19937;-89
2020/12/03 08:15:56;;;;;;;;;;;;;;;;;;4956434;28;19930;-89
2020/12/03 08:18:23;;;;;;;;;;;;;;;;;;4958209;29;20043;-89
2020/12/03 08:20:51;;;;;;;;;;;;;;;;;;4963364;28;20409;-89
2020/12/03 08:23:18;;;;;;;;;;;;;;;;;;4957442;29;20306;-89
2020/12/03 08:25:45;;;;;;;;;;;;;;;;;;4953616;28;19926;-88
2020/12/03 08:28:13;;;;;;;;;;;;;;;;;;4943931;29;19926;-88
2020/12/03 08:30:41;;;;;;;;;;;;;;;;;;4940477;29;19981;-88
2020/12/03 08:33:09;;;;;;;;;;;;;;;;;;4958009;29;19934;-88
2020/12/03 08:35:36;;;;;;;;;;;;;;;;;;4956258;28;19946;-88
2020/12/03 08:38:05;;;;;;;;;;;;;;;;;;4950229;29;19930;-87
2020/12/03 08:40:33;;;;;;;;;;;;;;;;;;4954531;29;19977;-87
2020/12/03 08:43:02;;;;;;;;;;;;;;;;;;4968359;28;20370;-87
2020/12/03 08:45:29;;;;;;;;;;;;;;;;;;4973701;28;19938;-87
2020/12/03 08:47:57;;;;;;;;;;;;;;;;;;4951386;28;20019;-86
2020/12/03 08:50:24;;;;;;;;;;;;;;;;;;4947825;29;20017;-86
2020/12/03 08:52:52;;;;;;;;;;;;;;;;;;4955792;29;19933;-86
2020/12/03 08:55:20;;;;;;;;;;;;;;;;;;4952631;28;20425;-86
2020/12/03 08:57:47;;;;;;;;;;;;;;;;;;4955801;28;20000;-87
2020/12/03 09:00:15;;;;;;;;;;;;;;;;;;4956517;29;19926;-86
2020/12/03 09:02:43;;;;;;;;;;;;;;;;;;4948948;28;19927;-87
2020/12/03 09:05:11;;;;;;;;;;;;;;;;;;4946099;28;19934;-86
2020/12/03 09:07:39;;;;;;;;;;;;;;;;;;4958094;29;19927;-86
2020/12/03 09:10:06;;;;;;;;;;;;;;;;;;4948324;28;20030;-88
2020/12/03 09:12:34;;;;;;;;;;;;;;;;;;4955056;28;19926;-87
2020/12/03 09:15:04;;;;;;;;;;;;;;;;;;4957218;28;20009;-87
2020/12/03 09:17:33;;;;;;;;;;;;;;;;;;4955148;28;20020;-88
2020/12/03 09:20:00;;;;;;;;;;;;;;;;;;4945028;29;19930;-87
2020/12/03 09:22:27;;;;;;;;;;;;;;;;;;4956814;28;20375;-87
2020/12/03 09:24:55;;;;;;;;;;;;;;;;;;4957220;28;20056;-88
2020/12/03 09:27:22;;;;;;;;;;;;;;;;;;4957566;29;19989;-88
2020/12/03 09:29:50;;;;;;;;;;;;;;;;;;4948881;29;19930;-86
2020/12/03 09:32:17;;;;;;;;;;;;;;;;;;4946119;29;19934;-86
2020/12/03 09:34:46;;;;;;;;;;;;;;;;;;4947194;29;19926;-86
2020/12/03 09:37:13;;;;;;;;;;;;;;;;;;4952314;28;20135;-86
2020/12/03 09:39:41;;;;;;;;;;;;;;;;;;4953178;29;19931;-86
2020/12/03 09:42:08;;;;;;;;;;;;;;;;;;4950562;28;19934;-86
2020/12/03 09:44:36;;;;;;;;;;;;;;;;;;4959475;28;19926;-86
2020/12/03 09:47:03;;;;;;;;;;;;;;;;;;4954588;28;19927;-86
2020/12/03 09:49:31;;;;;;;;;;;;;;;;;;4955596;29;19933;-86
2020/12/03 09:52:08;;;;;;;;;;;;;;;;;;4955632;29;19927;-86
2020/12/03 09:54:36;;;;;;;;;;;;;;;;;;4955029;28;20327;-86
2020/12/03 09:57:03;;;;;;;;;;;;;;;;;;4955345;28;19958;-86
2020/12/03 09:59:30;;;;;;;;;;;;;;;;;;4955298;29;19937;-86
2020/12/03 10:02:09;;;;;;;;;;;;;;;;;;4954250;29;20359;-86
2020/12/03 10:04:36;;;;;;;;;;;;;;;;;;4953604;28;20398;-86
2020/12/03 10:07:06;;;;;;;;;;;;;;;;;;4954610;28;19930;-85
2020/12/03 10:09:33;;;;;;;;;;;;;;;;;;4951845;29;20279;-85
2020/12/03 10:12:01;;;;;;;;;;;;;;;;;;4957562;28;19927;-85
2020/12/03 10:14:28;;;;;;;;;;;;;;;;;;4957873;28;19927;-86
2020/12/03 10:16:56;;;;;;;;;;;;;;;;;;4955010;28;19930;-86
2020/12/03 10:19:23;;;;;;;;;;;;;;;;;;4955387;28;19927;-86
2020/12/03 10:21:51;;;;;;;;;;;;;;;;;;4946776;29;19927;-85
2020/12/03 10:24:18;;;;;;;;;;;;;;;;;;4953179;28;19926;-86
2020/12/03 10:26:51;;;;;;;;;;;;;;;;;;4953189;29;20457;-85
2020/12/03 10:29:18;;;;;;;;;;;;;;;;;;4951511;28;19955;-86
2020/12/03 10:31:46;;;;;;;;;;;;;;;;;;4945878;28;19930;-86
2020/12/03 10:34:13;;;;;;;;;;;;;;;;;;4948466;28;19934;-86
2020/12/03 10:36:41;;;;;;;;;;;;;;;;;;4953387;28;19926;-86
2020/12/03 10:39:08;;;;;;;;;;;;;;;;;;4952031;28;20387;-87
2020/12/03 10:41:36;;;;;;;;;;;;;;;;;;4960136;28;19969;-85
2020/12/03 10:44:04;;;;;;;;;;;;;;;;;;4956520;28;19934;-85
2020/12/03 10:46:32;;;;;;;;;;;;;;;;;;4956485;28;20049;-85
2020/12/03 10:49:00;;;;;;;;;;;;;;;;;;4954184;28;19989;-86
2020/12/03 10:51:27;;;;;;;;;;;;;;;;;;4945742;29;19934;-86
2020/12/03 10:53:54;;;;;;;;;;;;;;;;;;4954274;28;20652;-86
2020/12/03 10:56:22;;;;;;;;;;;;;;;;;;4952996;28;19938;-87
2020/12/03 10:58:53;;;;;;;;;;;;;;;;;;4966345;28;19935;-87
2020/12/03 11:01:20;;;;;;;;;;;;;;;;;;4967916;28;19930;-86
2020/12/03 11:03:48;;;;;;;;;;;;;;;;;;4945377;28;19934;-86
2020/12/03 11:06:15;;;;;;;;;;;;;;;;;;4950009;28;19926;-86
2020/12/03 11:08:43;;;;;;;;;;;;;;;;;;4945311;28;19960;-86
2020/12/03 11:11:10;;;;;;;;;;;;;;;;;;4946910;28;19989;-86
2020/12/03 11:13:38;;;;;;;;;;;;;;;;;;4948560;28;19938;-86
2020/12/03 11:16:05;;;;;;;;;;;;;;;;;;4948989;28;20260;-86
2020/12/03 11:18:32;;;;;;;;;;;;;;;;;;4947293;28;20382;-86
2020/12/03 11:21:00;;;;;;;;;;;;;;;;;;4944665;28;19930;-86
2020/12/03 11:23:27;;;;;;;;;;;;;;;;;;4953119;28;19930;-87
2020/12/03 11:25:55;;;;;;;;;;;;;;;;;;4951312;28;20347;-86
2020/12/03 11:28:25;;;;;;;;;;;;;;;;;;4953776;28;19931;-85
2020/12/03 11:30:52;;;;;;;;;;;;;;;;;;4951918;28;19990;-85
2020/12/03 11:33:19;;;;;;;;;;;;;;;;;;4962361;28;20306;-85
2020/12/03 11:35:47;;;;;;;;;;;;;;;;;;4960670;28;19934;-86
2020/12/03 11:38:14;;;;;;;;;;;;;;;;;;4953728;29;19961;-85
2020/12/03 11:40:45;;;;;;;;;;;;;;;;;;4953922;29;19985;-85
2020/12/03 11:43:27;;;;;;;;;;;;;;;;;;4947340;29;19927;-86
2020/12/03 11:48:38;;;;;;;;;;;;;;;;;;4934258;28;20437;-86
2020/12/03 11:51:06;;;;;;;;;;;;;;;;;;4952591;29;19927;-88
2020/12/03 11:53:33;;;;;;;;;;;;;;;;;;4954389;28;19965;-89
2020/12/03 11:56:00;;;;;;;;;;;;;;;;;;4955151;28;20060;-89
2020/12/03 11:58:29;;;;;;;;;;;;;;;;;;4956385;29;19968;-88
2020/12/03 12:00:56;;;;;;;;;;;;;;;;;;4956002;29;19954;-86
2020/12/03 12:03:24;;;;;;;;;;;;;;;;;;4957632;28;20442;-86
2020/12/03 12:05:53;;;;;;;;;;;;;;;;;;4964579;28;19937;-86
2020/12/03 12:08:29;;;;;;;;;;;;;;;;;;4959270;28;19931;-86
2020/12/03 12:11:01;;;;;;;;;;;;;;;;;;4966313;28;19985;-86
2020/12/03 12:13:29;;;;;;;;;;;;;;;;;;4960193;29;19931;-86
2020/12/03 12:15:56;;;;;;;;;;;;;;;;;;4959711;28;19933;-86
2020/12/03 12:18:23;;;;;;;;;;;;;;;;;;4956830;29;19954;-86
2020/12/03 12:20:51;;;;;;;;;;;;;;;;;;4962350;28;19934;-86
2020/12/03 12:23:18;;;;;;;;;;;;;;;;;;4959020;28;19950;-86
2020/12/03 12:25:46;;;;;;;;;;;;;;;;;;4961942;29;19927;-85
2020/12/03 12:28:14;;;;;;;;;;;;;;;;;;4961348;29;20420;-86
2020/12/03 12:30:41;;;;;;;;;;;;;;;;;;4962583;28;19973;-86
2020/12/03 12:33:09;;;;;;;;;;;;;;;;;;4958732;29;19974;-86
2020/12/03 12:35:36;;;;;;;;;;;;;;;;;;4945050;29;19931;-86
2020/12/03 12:38:04;;;;;;;;;;;;;;;;;;4957954;29;19952;-86
2020/12/03 12:40:32;;;;;;;;;;;;;;;;;;4959134;28;19930;-86
2020/12/03 12:42:59;;;;;;;;;;;;;;;;;;4957536;28;19985;-86
2020/12/03 12:45:26;;;;;;;;;;;;;;;;;;4960937;28;19934;-85
2020/12/03 12:47:54;;;;;;;;;;;;;;;;;;4959096;28;19950;-85
2020/12/03 12:50:22;;;;;;;;;;;;;;;;;;4954928;28;19930;-85
2020/12/03 12:52:50;;;;;;;;;;;;;;;;;;4955465;29;19927;-85
2020/12/03 12:55:17;;;;;;;;;;;;;;;;;;4952167;28;19938;-86
2020/12/03 12:57:45;;;;;;;;;;;;;;;;;;4945664;28;19982;-87
2020/12/03 13:00:12;;;;;;;;;;;;;;;;;;4955248;28;19974;-87
2020/12/03 13:02:40;;;;;;;;;;;;;;;;;;4954919;29;19930;-86
2020/12/03 13:05:07;;;;;;;;;;;;;;;;;;4951363;28;19938;-86
2020/12/03 13:07:35;;;;;;;;;;;;;;;;;;4953774;28;19931;-86
2020/12/03 13:10:02;;;;;;;;;;;;;;;;;;4956772;28;19930;-87
2020/12/03 13:12:30;;;;;;;;;;;;;;;;;;4954933;28;19926;-87
2020/12/03 13:14:57;;;;;;;;;;;;;;;;;;4954868;28;19927;-86
2020/12/03 13:17:24;;;;;;;;;;;;;;;;;;4952751;28;20069;-87
2020/12/03 13:19:52;;;;;;;;;;;;;;;;;;4954855;28;20401;-86
2020/12/03 13:22:19;;;;;;;;;;;;;;;;;;4957689;28;19966;-86
2020/12/03 13:24:46;;;;;;;;;;;;;;;;;;4953283;29;19926;-86
2020/12/03 13:27:15;;;;;;;;;;;;;;;;;;4955062;29;20317;-86
2020/12/03 13:29:42;;;;;;;;;;;;;;;;;;4952744;28;19935;-86
2020/12/03 13:32:09;;;;;;;;;;;;;;;;;;4954063;29;19981;-86
2020/12/03 13:34:37;;;;;;;;;;;;;;;;;;4955602;29;19937;-87
2020/12/03 13:37:04;;;;;;;;;;;;;;;;;;4953698;29;19938;-86
2020/12/03 13:39:32;;;;;;;;;;;;;;;;;;4952630;28;20381;-88
2020/12/03 13:41:59;;;;;;;;;;;;;;;;;;4953321;28;20354;-89
2020/12/03 13:44:27;;;;;;;;;;;;;;;;;;4951044;28;19989;-87
2020/12/03 13:46:54;;;;;;;;;;;;;;;;;;4953162;28;19934;-87
2020/12/03 13:49:22;;;;;;;;;;;;;;;;;;4951999;29;20029;-86
2020/12/03 13:51:50;;;;;;;;;;;;;;;;;;4954890;29;20371;-87
2020/12/03 13:54:17;;;;;;;;;;;;;;;;;;4955301;28;19935;-87
2020/12/03 13:56:44;;;;;;;;;;;;;;;;;;4955468;28;20001;-86
2020/12/03 13:59:12;;;;;;;;;;;;;;;;;;4954848;28;19976;-86
2020/12/03 14:01:40;;;;;;;;;;;;;;;;;;4954407;28;20021;-87
2020/12/03 14:04:07;;;;;;;;;;;;;;;;;;4954428;28;19938;-86
2020/12/03 14:06:35;;;;;;;;;;;;;;;;;;4955013;28;19930;-86
2020/12/03 14:09:02;;;;;;;;;;;;;;;;;;4953418;28;19942;-87
2020/12/03 14:11:30;;;;;;;;;;;;;;;;;;4958748;28;19952;-87
2020/12/03 14:13:59;;;;;;;;;;;;;;;;;;4954374;28;19927;-87
2020/12/03 14:16:26;;;;;;;;;;;;;;;;;;4952717;28;19927;-87
2020/12/03 14:18:54;;;;;;;;;;;;;;;;;;4951551;28;19930;-87
2020/12/03 14:21:21;;;;;;;;;;;;;;;;;;4962403;28;20433;-87
2020/12/03 14:23:49;;;;;;;;;;;;;;;;;;4957036;28;20116;-87
2020/12/03 14:26:16;;;;;;;;;;;;;;;;;;4953165;28;19930;-87
2020/12/03 14:28:44;;;;;;;;;;;;;;;;;;4954204;28;19931;-87
2020/12/03 14:31:11;;;;;;;;;;;;;;;;;;4953352;29;19927;-87
2020/12/03 14:33:39;;;;;;;;;;;;;;;;;;4953817;29;19930;-86
2020/12/03 14:36:06;;;;;;;;;;;;;;;;;;4951466;29;20310;-86
2020/12/03 14:38:33;;;;;;;;;;;;;;;;;;4953259;29;19930;-87
2020/12/03 14:41:01;;;;;;;;;;;;;;;;;;4946811;29;19930;-87
2020/12/03 14:43:28;;;;;;;;;;;;;;;;;;4954729;28;19930;-87
2020/12/03 14:45:56;;;;;;;;;;;;;;;;;;4951445;28;19926;-86
2020/12/03 14:48:23;;;;;;;;;;;;;;;;;;4943942;29;19934;-87
2020/12/03 14:50:50;;;;;;;;;;;;;;;;;;4952868;29;19985;-87
2020/12/03 14:53:20;;;;;;;;;;;;;;;;;;4953991;28;19926;-86
2020/12/03 14:55:49;;;;;;;;;;;;;;;;;;4955344;28;19934;-87
2020/12/03 14:58:20;;;;;;;;;;;;;;;;;;4957490;28;19926;-87
2020/12/03 15:00:48;;;;;;;;;;;;;;;;;;4956630;29;19938;-86
2020/12/03 15:03:15;;;;;;;;;;;;;;;;;;4956467;28;19930;-87
2020/12/03 15:05:43;;;;;;;;;;;;;;;;;;4957405;28;20019;-86
2020/12/03 15:08:11;;;;;;;;;;;;;;;;;;4955767;29;19943;-87
2020/12/03 15:10:41;;;;;;;;;;;;;;;;;;4960157;28;19927;-86
2020/12/03 15:13:08;;;;;;;;;;;;;;;;;;4949997;28;20401;-87
2020/12/03 15:15:36;;;;;;;;;;;;;;;;;;4946752;29;20363;-86
2020/12/03 15:18:03;;;;;;;;;;;;;;;;;;4960562;28;19934;-87
2020/12/03 15:20:31;;;;;;;;;;;;;;;;;;4954814;28;20405;-86
2020/12/03 15:22:58;;;;;;;;;;;;;;;;;;4969459;28;19930;-86
2020/12/03 15:25:25;;;;;;;;;;;;;;;;;;4954529;28;19989;-86
2020/12/03 15:27:53;;;;;;;;;;;;;;;;;;4952547;28;19941;-86
2020/12/03 15:30:20;;;;;;;;;;;;;;;;;;4953044;28;19931;-86
2020/12/03 15:32:50;;;;;;;;;;;;;;;;;;4952795;28;19985;-86
2020/12/03 15:35:17;;;;;;;;;;;;;;;;;;4954518;28;19937;-86
2020/12/03 15:37:45;;;;;;;;;;;;;;;;;;4957017;28;20017;-86
2020/12/03 15:40:12;;;;;;;;;;;;;;;;;;4955423;28;19930;-87
2020/12/03 15:42:40;;;;;;;;;;;;;;;;;;4952867;29;19930;-86
2020/12/03 15:45:07;;;;;;;;;;;;;;;;;;4951631;28;20013;-87
2020/12/03 15:47:35;;;;;;;;;;;;;;;;;;4958525;28;19930;-86
2020/12/03 15:50:02;;;;;;;;;;;;;;;;;;4952756;29;20322;-86
2020/12/03 15:52:30;;;;;;;;;;;;;;;;;;4953892;29;19930;-86
2020/12/03 15:54:57;;;;;;;;;;;;;;;;;;4951527;28;19937;-87
2020/12/03 15:57:24;;;;;;;;;;;;;;;;;;4953236;28;19992;-86
2020/12/03 15:59:51;;;;;;;;;;;;;;;;;;4952917;28;20318;-87
2020/12/03 16:02:19;;;;;;;;;;;;;;;;;;4952753;29;19970;-86
2020/12/03 16:04:47;;;;;;;;;;;;;;;;;;4952268;28;19970;-87
2020/12/03 16:07:14;;;;;;;;;;;;;;;;;;4951231;28;19965;-87
2020/12/03 16:09:44;;;;;;;;;;;;;;;;;;4952531;28;19930;-86
2020/12/03 16:12:11;;;;;;;;;;;;;;;;;;4951892;28;20013;-86
2020/12/03 16:14:39;;;;;;;;;;;;;;;;;;4953427;28;19993;-87
2020/12/03 16:17:06;;;;;;;;;;;;;;;;;;4955128;29;19930;-88
2020/12/03 16:19:36;;;;;;;;;;;;;;;;;;4954045;28;19927;-87
2020/12/03 16:22:03;;;;;;;;;;;;;;;;;;4960034;28;19946;-87
2020/12/03 16:24:30;;;;;;;;;;;;;;;;;;4950405;28;19981;-88
2020/12/03 16:26:58;;;;;;;;;;;;;;;;;;4953867;28;19934;-88
2020/12/03 16:29:25;;;;;;;;;;;;;;;;;;4954180;28;19979;-88
2020/12/03 16:31:56;;;;;;;;;;;;;;;;;;4950778;28;20302;-88
2020/12/03 16:34:24;;;;;;;;;;;;;;;;;;4950321;28;19933;-88
2020/12/03 16:36:51;;;;;;;;;;;;;;;;;;4954628;28;19930;-88
2020/12/03 16:39:18;;;;;;;;;;;;;;;;;;4954611;29;19934;-88
2020/12/03 16:41:47;;;;;;;;;;;;;;;;;;4947214;28;19930;-88
2020/12/03 16:44:14;;;;;;;;;;;;;;;;;;4947875;28;19937;-89
2020/12/03 16:46:41;;;;;;;;;;;;;;;;;;4948839;29;19930;-88
2020/12/03 16:49:08;;;;;;;;;;;;;;;;;;4950830;29;20044;-88
2020/12/03 16:51:36;;;;;;;;;;;;;;;;;;4950007;28;19934;-88